sensor_id;sensor_type;location;lat;lon;timestamp;P1;durP1;ratioP1;P2;durP2;ratioP2
3781;SDS011;6881;49.962;7.718;2023-11-19T00:01:00;3.40;;;2.50;;
3781;SDS011;6881;49.962;7.718;2023-11-19T00:03:25;3.40;;;1.77;;
3781;SDS011;6881;49.962;7.718;2023-11-19T00:05:51;3.30;;;1.50;;
3781;SDS011;6881;49.962;7.718;2023-11-19T00:08:16;3.77;;;1.97;;
3781;SDS011;6881;49.962;7.718;2023-11-19T00:10:41;3.53;;;2.70;;
3781;SDS011;6881;49.962;7.718;2023-11-19T00:13:07;2.90;;;1.60;;
3781;SDS011;6881;49.962;7.718;2023-11-19T00:15:33;5.97;;;2.70;;
3781;SDS011;6881;49.962;7.718;2023-11-19T00:17:58;3.63;;;2.07;;
3781;SDS011;6881;49.962;7.718;2023-11-19T00:20:23;6.33;;;2.10;;
3781;SDS011;6881;49.962;7.718;2023-11-19T00:22:48;7.40;;;3.10;;
3781;SDS011;6881;49.962;7.718;2023-11-19T00:25:17;2.50;;;1.97;;
3781;SDS011;6881;49.962;7.718;2023-11-19T00:27:43;3.00;;;1.57;;
3781;SDS011;6881;49.962;7.718;2023-11-19T00:30:11;2.00;;;1.10;;
3781;SDS011;6881;49.962;7.718;2023-11-19T00:32:38;1.53;;;0.97;;
3781;SDS011;6881;49.962;7.718;2023-11-19T00:35:05;6.83;;;1.30;;
3781;SDS011;6881;49.962;7.718;2023-11-19T00:37:30;1.30;;;0.90;;
3781;SDS011;6881;49.962;7.718;2023-11-19T00:39:56;1.93;;;1.00;;
3781;SDS011;6881;49.962;7.718;2023-11-19T00:42:22;1.50;;;0.97;;
3781;SDS011;6881;49.962;7.718;2023-11-19T00:44:49;4.70;;;3.70;;
3781;SDS011;6881;49.962;7.718;2023-11-19T00:47:14;3.33;;;1.30;;
3781;SDS011;6881;49.962;7.718;2023-11-19T00:49:39;1.27;;;0.80;;
3781;SDS011;6881;49.962;7.718;2023-11-19T00:52:05;1.10;;;0.90;;
3781;SDS011;6881;49.962;7.718;2023-11-19T00:54:31;1.20;;;0.80;;
3781;SDS011;6881;49.962;7.718;2023-11-19T00:56:56;1.40;;;0.87;;
3781;SDS011;6881;49.962;7.718;2023-11-19T00:59:22;2.67;;;0.90;;
3781;SDS011;6881;49.962;7.718;2023-11-19T01:01:47;1.23;;;0.80;;
3781;SDS011;6881;49.962;7.718;2023-11-19T01:04:18;1.30;;;0.67;;
3781;SDS011;6881;49.962;7.718;2023-11-19T01:06:44;1.43;;;0.90;;
3781;SDS011;6881;49.962;7.718;2023-11-19T01:09:09;1.83;;;0.60;;
3781;SDS011;6881;49.962;7.718;2023-11-19T01:11:35;0.90;;;0.40;;
3781;SDS011;6881;49.962;7.718;2023-11-19T01:14:00;1.07;;;0.43;;
3781;SDS011;6881;49.962;7.718;2023-11-19T01:16:26;0.90;;;0.40;;
3781;SDS011;6881;49.962;7.718;2023-11-19T01:18:51;1.00;;;0.60;;
3781;SDS011;6881;49.962;7.718;2023-11-19T01:21:17;1.17;;;0.70;;
3781;SDS011;6881;49.962;7.718;2023-11-19T01:23:42;1.10;;;0.60;;
3781;SDS011;6881;49.962;7.718;2023-11-19T01:26:11;1.00;;;0.67;;
3781;SDS011;6881;49.962;7.718;2023-11-19T01:28:37;1.27;;;0.87;;
3781;SDS011;6881;49.962;7.718;2023-11-19T01:31:04;1.23;;;0.70;;
3781;SDS011;6881;49.962;7.718;2023-11-19T01:33:30;2.97;;;1.00;;
3781;SDS011;6881;49.962;7.718;2023-11-19T01:35:55;1.30;;;0.90;;
3781;SDS011;6881;49.962;7.718;2023-11-19T01:38:23;5.20;;;0.80;;
3781;SDS011;6881;49.962;7.718;2023-11-19T01:40:49;1.10;;;0.67;;
3781;SDS011;6881;49.962;7.718;2023-11-19T01:43:30;1.57;;;0.87;;
3781;SDS011;6881;49.962;7.718;2023-11-19T01:45:59;1.30;;;0.90;;
3781;SDS011;6881;49.962;7.718;2023-11-19T01:48:25;1.37;;;0.77;;
3781;SDS011;6881;49.962;7.718;2023-11-19T01:50:50;1.03;;;0.73;;
3781;SDS011;6881;49.962;7.718;2023-11-19T01:53:17;0.97;;;0.60;;
3781;SDS011;6881;49.962;7.718;2023-11-19T01:55:43;0.90;;;0.60;;
3781;SDS011;6881;49.962;7.718;2023-11-19T01:58:08;1.10;;;0.70;;
3781;SDS011;6881;49.962;7.718;2023-11-19T02:00:34;1.10;;;0.63;;
3781;SDS011;6881;49.962;7.718;2023-11-19T02:02:59;1.83;;;0.73;;
3781;SDS011;6881;49.962;7.718;2023-11-19T02:05:25;1.20;;;0.63;;
3781;SDS011;6881;49.962;7.718;2023-11-19T02:07:51;0.90;;;0.60;;
3781;SDS011;6881;49.962;7.718;2023-11-19T02:10:17;1.10;;;0.60;;
3781;SDS011;6881;49.962;7.718;2023-11-19T02:12:44;3.00;;;0.90;;
3781;SDS011;6881;49.962;7.718;2023-11-19T02:15:10;1.30;;;0.80;;
3781;SDS011;6881;49.962;7.718;2023-11-19T02:17:35;3.50;;;0.93;;
3781;SDS011;6881;49.962;7.718;2023-11-19T02:20:03;1.33;;;1.03;;
3781;SDS011;6881;49.962;7.718;2023-11-19T02:22:31;3.10;;;0.80;;
3781;SDS011;6881;49.962;7.718;2023-11-19T02:24:59;1.10;;;0.60;;
3781;SDS011;6881;49.962;7.718;2023-11-19T02:27:29;1.53;;;0.70;;
3781;SDS011;6881;49.962;7.718;2023-11-19T02:30:02;1.33;;;1.10;;
3781;SDS011;6881;49.962;7.718;2023-11-19T02:32:32;1.30;;;0.80;;
3781;SDS011;6881;49.962;7.718;2023-11-19T02:34:57;1.30;;;0.70;;
3781;SDS011;6881;49.962;7.718;2023-11-19T02:37:23;1.10;;;0.63;;
3781;SDS011;6881;49.962;7.718;2023-11-19T02:39:48;3.77;;;0.80;;
3781;SDS011;6881;49.962;7.718;2023-11-19T02:42:13;1.50;;;0.80;;
3781;SDS011;6881;49.962;7.718;2023-11-19T02:44:39;1.40;;;0.80;;
3781;SDS011;6881;49.962;7.718;2023-11-19T02:47:09;1.17;;;0.60;;
3781;SDS011;6881;49.962;7.718;2023-11-19T02:49:34;1.10;;;0.70;;
3781;SDS011;6881;49.962;7.718;2023-11-19T02:51:59;0.97;;;0.60;;
3781;SDS011;6881;49.962;7.718;2023-11-19T02:54:24;1.30;;;0.80;;
3781;SDS011;6881;49.962;7.718;2023-11-19T02:56:52;1.10;;;0.60;;
3781;SDS011;6881;49.962;7.718;2023-11-19T02:59:20;2.00;;;0.77;;
3781;SDS011;6881;49.962;7.718;2023-11-19T03:01:52;1.50;;;0.70;;
3781;SDS011;6881;49.962;7.718;2023-11-19T03:04:18;2.07;;;0.53;;
3781;SDS011;6881;49.962;7.718;2023-11-19T03:06:45;0.90;;;0.50;;
3781;SDS011;6881;49.962;7.718;2023-11-19T03:09:11;1.00;;;0.60;;
3781;SDS011;6881;49.962;7.718;2023-11-19T03:11:36;1.10;;;0.53;;
3781;SDS011;6881;49.962;7.718;2023-11-19T03:14:02;1.03;;;0.40;;
3781;SDS011;6881;49.962;7.718;2023-11-19T03:16:28;1.00;;;0.47;;
3781;SDS011;6881;49.962;7.718;2023-11-19T03:18:54;1.50;;;0.40;;
3781;SDS011;6881;49.962;7.718;2023-11-19T03:21:20;0.80;;;0.30;;
3781;SDS011;6881;49.962;7.718;2023-11-19T03:23:52;0.97;;;0.50;;
3781;SDS011;6881;49.962;7.718;2023-11-19T03:26:17;5.60;;;0.97;;
3781;SDS011;6881;49.962;7.718;2023-11-19T03:28:43;0.90;;;0.60;;
3781;SDS011;6881;49.962;7.718;2023-11-19T03:31:08;1.10;;;0.40;;
3781;SDS011;6881;49.962;7.718;2023-11-19T03:33:33;1.17;;;0.50;;
3781;SDS011;6881;49.962;7.718;2023-11-19T03:35:59;1.77;;;0.70;;
3781;SDS011;6881;49.962;7.718;2023-11-19T03:38:24;1.17;;;0.50;;
3781;SDS011;6881;49.962;7.718;2023-11-19T03:40:49;0.90;;;0.60;;
3781;SDS011;6881;49.962;7.718;2023-11-19T03:43:15;2.17;;;0.60;;
3781;SDS011;6881;49.962;7.718;2023-11-19T03:45:40;0.90;;;0.40;;
3781;SDS011;6881;49.962;7.718;2023-11-19T03:48:06;1.00;;;0.40;;
3781;SDS011;6881;49.962;7.718;2023-11-19T03:50:31;0.90;;;0.40;;
3781;SDS011;6881;49.962;7.718;2023-11-19T03:52:56;1.40;;;0.60;;
3781;SDS011;6881;49.962;7.718;2023-11-19T03:55:22;1.10;;;0.50;;
3781;SDS011;6881;49.962;7.718;2023-11-19T03:57:47;0.90;;;0.50;;
3781;SDS011;6881;49.962;7.718;2023-11-19T04:00:13;0.80;;;0.40;;
3781;SDS011;6881;49.962;7.718;2023-11-19T04:02:40;1.57;;;0.50;;
3781;SDS011;6881;49.962;7.718;2023-11-19T04:05:06;1.03;;;0.53;;
3781;SDS011;6881;49.962;7.718;2023-11-19T04:07:32;0.90;;;0.57;;
3781;SDS011;6881;49.962;7.718;2023-11-19T04:09:57;1.13;;;0.60;;
3781;SDS011;6881;49.962;7.718;2023-11-19T04:12:23;0.80;;;0.50;;
3781;SDS011;6881;49.962;7.718;2023-11-19T04:14:48;1.20;;;0.40;;
3781;SDS011;6881;49.962;7.718;2023-11-19T04:17:13;1.00;;;0.50;;
3781;SDS011;6881;49.962;7.718;2023-11-19T04:19:38;1.80;;;1.00;;
3781;SDS011;6881;49.962;7.718;2023-11-19T04:22:06;1.70;;;0.70;;
3781;SDS011;6881;49.962;7.718;2023-11-19T04:24:31;2.63;;;1.07;;
3781;SDS011;6881;49.962;7.718;2023-11-19T04:26:57;1.50;;;0.90;;
3781;SDS011;6881;49.962;7.718;2023-11-19T04:29:22;2.00;;;0.70;;
3781;SDS011;6881;49.962;7.718;2023-11-19T04:31:48;2.67;;;0.83;;
3781;SDS011;6881;49.962;7.718;2023-11-19T04:34:13;3.67;;;0.90;;
3781;SDS011;6881;49.962;7.718;2023-11-19T04:36:38;1.97;;;1.30;;
3781;SDS011;6881;49.962;7.718;2023-11-19T04:39:04;2.27;;;1.33;;
3781;SDS011;6881;49.962;7.718;2023-11-19T04:41:45;7.10;;;2.10;;
3781;SDS011;6881;49.962;7.718;2023-11-19T04:44:11;3.53;;;1.80;;
3781;SDS011;6881;49.962;7.718;2023-11-19T04:46:37;3.43;;;2.00;;
3781;SDS011;6881;49.962;7.718;2023-11-19T04:49:02;3.70;;;1.70;;
3781;SDS011;6881;49.962;7.718;2023-11-19T04:51:27;2.37;;;1.60;;
3781;SDS011;6881;49.962;7.718;2023-11-19T04:53:52;2.80;;;2.23;;
3781;SDS011;6881;49.962;7.718;2023-11-19T04:56:18;2.80;;;1.77;;
3781;SDS011;6881;49.962;7.718;2023-11-19T04:58:44;2.47;;;1.43;;
3781;SDS011;6881;49.962;7.718;2023-11-19T05:01:13;2.00;;;1.70;;
3781;SDS011;6881;49.962;7.718;2023-11-19T05:03:41;2.07;;;1.27;;
3781;SDS011;6881;49.962;7.718;2023-11-19T05:06:07;2.07;;;1.00;;
3781;SDS011;6881;49.962;7.718;2023-11-19T05:08:32;1.80;;;0.90;;
3781;SDS011;6881;49.962;7.718;2023-11-19T05:10:58;1.30;;;0.93;;
3781;SDS011;6881;49.962;7.718;2023-11-19T05:13:24;1.27;;;0.97;;
3781;SDS011;6881;49.962;7.718;2023-11-19T05:15:49;1.93;;;1.40;;
3781;SDS011;6881;49.962;7.718;2023-11-19T05:18:15;2.80;;;1.17;;
3781;SDS011;6881;49.962;7.718;2023-11-19T05:20:40;3.80;;;1.70;;
3781;SDS011;6881;49.962;7.718;2023-11-19T05:23:05;2.17;;;1.67;;
3781;SDS011;6881;49.962;7.718;2023-11-19T05:25:31;2.67;;;2.00;;
3781;SDS011;6881;49.962;7.718;2023-11-19T05:27:56;3.10;;;1.77;;
3781;SDS011;6881;49.962;7.718;2023-11-19T05:30:21;4.00;;;2.53;;
3781;SDS011;6881;49.962;7.718;2023-11-19T05:32:47;5.03;;;1.93;;
3781;SDS011;6881;49.962;7.718;2023-11-19T05:35:13;3.50;;;2.50;;
3781;SDS011;6881;49.962;7.718;2023-11-19T05:37:38;2.20;;;1.80;;
3781;SDS011;6881;49.962;7.718;2023-11-19T05:40:04;3.67;;;2.00;;
3781;SDS011;6881;49.962;7.718;2023-11-19T05:42:37;4.67;;;2.53;;
3781;SDS011;6881;49.962;7.718;2023-11-19T05:45:02;4.67;;;2.87;;
3781;SDS011;6881;49.962;7.718;2023-11-19T05:47:28;5.93;;;3.30;;
3781;SDS011;6881;49.962;7.718;2023-11-19T05:49:53;4.57;;;4.17;;
3781;SDS011;6881;49.962;7.718;2023-11-19T05:52:18;7.07;;;5.70;;
3781;SDS011;6881;49.962;7.718;2023-11-19T05:54:44;7.73;;;4.40;;
3781;SDS011;6881;49.962;7.718;2023-11-19T05:57:09;7.83;;;3.00;;
3781;SDS011;6881;49.962;7.718;2023-11-19T05:59:35;2.80;;;2.50;;
3781;SDS011;6881;49.962;7.718;2023-11-19T06:02:01;2.53;;;1.40;;
3781;SDS011;6881;49.962;7.718;2023-11-19T06:04:27;1.90;;;1.70;;
3781;SDS011;6881;49.962;7.718;2023-11-19T06:06:52;2.50;;;1.73;;
3781;SDS011;6881;49.962;7.718;2023-11-19T06:09:19;3.07;;;1.50;;
3781;SDS011;6881;49.962;7.718;2023-11-19T06:11:45;5.63;;;2.40;;
3781;SDS011;6881;49.962;7.718;2023-11-19T06:14:12;3.33;;;1.80;;
3781;SDS011;6881;49.962;7.718;2023-11-19T06:16:37;2.43;;;2.20;;
3781;SDS011;6881;49.962;7.718;2023-11-19T06:19:04;5.77;;;2.60;;
3781;SDS011;6881;49.962;7.718;2023-11-19T06:21:30;3.00;;;1.87;;
3781;SDS011;6881;49.962;7.718;2023-11-19T06:23:55;2.70;;;2.47;;
3781;SDS011;6881;49.962;7.718;2023-11-19T06:26:21;4.13;;;3.17;;
3781;SDS011;6881;49.962;7.718;2023-11-19T06:28:47;5.10;;;3.50;;
3781;SDS011;6881;49.962;7.718;2023-11-19T06:31:12;5.30;;;2.60;;
3781;SDS011;6881;49.962;7.718;2023-11-19T06:33:41;3.57;;;2.50;;
3781;SDS011;6881;49.962;7.718;2023-11-19T06:36:06;4.67;;;2.33;;
3781;SDS011;6881;49.962;7.718;2023-11-19T06:38:32;4.70;;;2.30;;
3781;SDS011;6881;49.962;7.718;2023-11-19T06:40:58;2.90;;;2.60;;
3781;SDS011;6881;49.962;7.718;2023-11-19T06:43:23;8.63;;;6.67;;
3781;SDS011;6881;49.962;7.718;2023-11-19T06:45:48;6.80;;;4.27;;
3781;SDS011;6881;49.962;7.718;2023-11-19T06:48:14;6.27;;;3.33;;
3781;SDS011;6881;49.962;7.718;2023-11-19T06:50:39;6.70;;;3.77;;
3781;SDS011;6881;49.962;7.718;2023-11-19T06:53:04;3.37;;;2.57;;
3781;SDS011;6881;49.962;7.718;2023-11-19T06:55:31;4.07;;;3.10;;
3781;SDS011;6881;49.962;7.718;2023-11-19T06:57:57;2.93;;;2.60;;
3781;SDS011;6881;49.962;7.718;2023-11-19T07:00:25;2.67;;;2.20;;
3781;SDS011;6881;49.962;7.718;2023-11-19T07:02:50;9.23;;;3.40;;
3781;SDS011;6881;49.962;7.718;2023-11-19T07:05:16;4.33;;;2.40;;
3781;SDS011;6881;49.962;7.718;2023-11-19T07:07:41;6.37;;;3.07;;
3781;SDS011;6881;49.962;7.718;2023-11-19T07:10:06;6.90;;;3.10;;
3781;SDS011;6881;49.962;7.718;2023-11-19T07:12:34;5.43;;;2.70;;
3781;SDS011;6881;49.962;7.718;2023-11-19T07:15:00;5.77;;;2.70;;
3781;SDS011;6881;49.962;7.718;2023-11-19T07:17:27;4.00;;;3.10;;
3781;SDS011;6881;49.962;7.718;2023-11-19T07:19:52;3.80;;;2.77;;
3781;SDS011;6881;49.962;7.718;2023-11-19T07:22:17;3.43;;;2.40;;
3781;SDS011;6881;49.962;7.718;2023-11-19T07:24:43;6.50;;;2.87;;
3781;SDS011;6881;49.962;7.718;2023-11-19T07:27:08;3.87;;;2.50;;
3781;SDS011;6881;49.962;7.718;2023-11-19T07:29:34;6.23;;;2.20;;
3781;SDS011;6881;49.962;7.718;2023-11-19T07:32:02;3.13;;;2.83;;
3781;SDS011;6881;49.962;7.718;2023-11-19T07:34:27;5.93;;;2.53;;
3781;SDS011;6881;49.962;7.718;2023-11-19T07:36:54;3.00;;;1.90;;
3781;SDS011;6881;49.962;7.718;2023-11-19T07:39:22;3.57;;;1.93;;
3781;SDS011;6881;49.962;7.718;2023-11-19T07:41:47;4.17;;;1.80;;
3781;SDS011;6881;49.962;7.718;2023-11-19T07:44:12;1.63;;;1.53;;
3781;SDS011;6881;49.962;7.718;2023-11-19T07:46:38;3.60;;;2.50;;
3781;SDS011;6881;49.962;7.718;2023-11-19T07:49:03;5.20;;;2.00;;
3781;SDS011;6881;49.962;7.718;2023-11-19T07:51:28;2.73;;;1.80;;
3781;SDS011;6881;49.962;7.718;2023-11-19T07:53:54;3.80;;;2.80;;
3781;SDS011;6881;49.962;7.718;2023-11-19T07:56:19;5.10;;;2.10;;
3781;SDS011;6881;49.962;7.718;2023-11-19T07:58:44;4.33;;;1.83;;
3781;SDS011;6881;49.962;7.718;2023-11-19T08:01:10;3.40;;;1.70;;
3781;SDS011;6881;49.962;7.718;2023-11-19T08:03:35;11.93;;;3.03;;
3781;SDS011;6881;49.962;7.718;2023-11-19T08:06:00;9.03;;;3.13;;
3781;SDS011;6881;49.962;7.718;2023-11-19T08:08:27;5.20;;;2.33;;
3781;SDS011;6881;49.962;7.718;2023-11-19T08:10:54;4.27;;;2.10;;
3781;SDS011;6881;49.962;7.718;2023-11-19T08:13:21;4.90;;;2.93;;
3781;SDS011;6881;49.962;7.718;2023-11-19T08:15:47;6.67;;;2.20;;
3781;SDS011;6881;49.962;7.718;2023-11-19T08:18:12;8.73;;;3.60;;
3781;SDS011;6881;49.962;7.718;2023-11-19T08:20:37;6.37;;;3.10;;
3781;SDS011;6881;49.962;7.718;2023-11-19T08:23:03;7.33;;;3.30;;
3781;SDS011;6881;49.962;7.718;2023-11-19T08:25:28;5.43;;;3.90;;
3781;SDS011;6881;49.962;7.718;2023-11-19T08:27:54;3.87;;;3.20;;
3781;SDS011;6881;49.962;7.718;2023-11-19T08:30:19;4.53;;;2.27;;
3781;SDS011;6881;49.962;7.718;2023-11-19T08:32:45;5.97;;;2.13;;
3781;SDS011;6881;49.962;7.718;2023-11-19T08:35:10;4.27;;;1.70;;
3781;SDS011;6881;49.962;7.718;2023-11-19T08:37:35;3.03;;;1.40;;
3781;SDS011;6881;49.962;7.718;2023-11-19T08:40:02;2.77;;;2.10;;
3781;SDS011;6881;49.962;7.718;2023-11-19T08:42:29;5.10;;;2.10;;
3781;SDS011;6881;49.962;7.718;2023-11-19T08:44:54;4.07;;;1.90;;
3781;SDS011;6881;49.962;7.718;2023-11-19T08:47:20;8.10;;;2.30;;
3781;SDS011;6881;49.962;7.718;2023-11-19T08:49:47;2.70;;;1.83;;
3781;SDS011;6881;49.962;7.718;2023-11-19T08:52:12;4.17;;;2.00;;
3781;SDS011;6881;49.962;7.718;2023-11-19T08:54:38;5.07;;;1.80;;
3781;SDS011;6881;49.962;7.718;2023-11-19T08:57:08;8.90;;;2.47;;
3781;SDS011;6881;49.962;7.718;2023-11-19T08:59:34;5.97;;;3.20;;
3781;SDS011;6881;49.962;7.718;2023-11-19T09:01:59;5.50;;;2.60;;
3781;SDS011;6881;49.962;7.718;2023-11-19T09:04:25;5.33;;;1.73;;
3781;SDS011;6881;49.962;7.718;2023-11-19T09:06:50;5.27;;;1.90;;
3781;SDS011;6881;49.962;7.718;2023-11-19T09:09:15;7.53;;;2.90;;
3781;SDS011;6881;49.962;7.718;2023-11-19T09:11:41;8.30;;;2.90;;
3781;SDS011;6881;49.962;7.718;2023-11-19T09:14:07;6.70;;;2.90;;
3781;SDS011;6881;49.962;7.718;2023-11-19T09:16:32;6.40;;;2.43;;
3781;SDS011;6881;49.962;7.718;2023-11-19T09:18:58;5.53;;;2.33;;
3781;SDS011;6881;49.962;7.718;2023-11-19T09:21:24;6.10;;;2.03;;
3781;SDS011;6881;49.962;7.718;2023-11-19T09:23:50;4.93;;;2.30;;
3781;SDS011;6881;49.962;7.718;2023-11-19T09:26:15;6.07;;;2.50;;
3781;SDS011;6881;49.962;7.718;2023-11-19T09:28:41;5.57;;;2.10;;
3781;SDS011;6881;49.962;7.718;2023-11-19T09:31:12;11.80;;;2.87;;
3781;SDS011;6881;49.962;7.718;2023-11-19T09:33:41;4.80;;;2.10;;
3781;SDS011;6881;49.962;7.718;2023-11-19T09:36:07;6.90;;;2.37;;
3781;SDS011;6881;49.962;7.718;2023-11-19T09:38:33;9.57;;;2.90;;
3781;SDS011;6881;49.962;7.718;2023-11-19T09:40:58;9.17;;;3.87;;
3781;SDS011;6881;49.962;7.718;2023-11-19T09:43:26;6.40;;;2.43;;
3781;SDS011;6881;49.962;7.718;2023-11-19T09:45:53;8.00;;;2.60;;
3781;SDS011;6881;49.962;7.718;2023-11-19T09:48:19;5.97;;;3.40;;
3781;SDS011;6881;49.962;7.718;2023-11-19T09:50:45;7.80;;;3.60;;
3781;SDS011;6881;49.962;7.718;2023-11-19T09:53:12;6.70;;;4.33;;
3781;SDS011;6881;49.962;7.718;2023-11-19T09:55:37;8.70;;;3.30;;
3781;SDS011;6881;49.962;7.718;2023-11-19T09:58:02;8.53;;;4.20;;
3781;SDS011;6881;49.962;7.718;2023-11-19T10:00:28;4.10;;;3.10;;
3781;SDS011;6881;49.962;7.718;2023-11-19T10:02:55;9.13;;;4.10;;
3781;SDS011;6881;49.962;7.718;2023-11-19T10:05:22;9.33;;;3.80;;
3781;SDS011;6881;49.962;7.718;2023-11-19T10:07:48;6.07;;;2.87;;
3781;SDS011;6881;49.962;7.718;2023-11-19T10:10:14;6.33;;;3.07;;
3781;SDS011;6881;49.962;7.718;2023-11-19T10:12:43;6.67;;;2.53;;
3781;SDS011;6881;49.962;7.718;2023-11-19T10:15:09;8.33;;;3.07;;
3781;SDS011;6881;49.962;7.718;2023-11-19T10:17:46;5.30;;;2.50;;
3781;SDS011;6881;49.962;7.718;2023-11-19T10:20:11;9.10;;;2.70;;
3781;SDS011;6881;49.962;7.718;2023-11-19T10:22:37;6.30;;;3.57;;
3781;SDS011;6881;49.962;7.718;2023-11-19T10:25:03;5.73;;;2.87;;
3781;SDS011;6881;49.962;7.718;2023-11-19T10:27:28;4.30;;;2.20;;
3781;SDS011;6881;49.962;7.718;2023-11-19T10:29:54;5.07;;;1.80;;
3781;SDS011;6881;49.962;7.718;2023-11-19T10:32:24;5.27;;;2.30;;
3781;SDS011;6881;49.962;7.718;2023-11-19T10:34:49;7.03;;;1.77;;
3781;SDS011;6881;49.962;7.718;2023-11-19T10:37:27;9.00;;;2.20;;
3781;SDS011;6881;49.962;7.718;2023-11-19T10:39:56;7.20;;;2.57;;
3781;SDS011;6881;49.962;7.718;2023-11-19T10:42:22;9.70;;;2.23;;
3781;SDS011;6881;49.962;7.718;2023-11-19T10:44:47;3.90;;;1.87;;
3781;SDS011;6881;49.962;7.718;2023-11-19T10:47:16;4.40;;;2.20;;
3781;SDS011;6881;49.962;7.718;2023-11-19T10:49:44;11.90;;;2.47;;
3781;SDS011;6881;49.962;7.718;2023-11-19T10:52:11;6.13;;;2.23;;
3781;SDS011;6881;49.962;7.718;2023-11-19T10:54:36;7.13;;;3.00;;
3781;SDS011;6881;49.962;7.718;2023-11-19T10:57:04;10.17;;;4.43;;
3781;SDS011;6881;49.962;7.718;2023-11-19T10:59:31;6.13;;;3.17;;
3781;SDS011;6881;49.962;7.718;2023-11-19T11:01:57;4.43;;;2.63;;
3781;SDS011;6881;49.962;7.718;2023-11-19T11:04:23;9.97;;;2.40;;
3781;SDS011;6881;49.962;7.718;2023-11-19T11:06:54;5.83;;;1.60;;
3781;SDS011;6881;49.962;7.718;2023-11-19T11:09:19;4.13;;;2.10;;
3781;SDS011;6881;49.962;7.718;2023-11-19T11:11:46;2.30;;;1.10;;
3781;SDS011;6881;49.962;7.718;2023-11-19T11:14:12;5.40;;;1.90;;
3781;SDS011;6881;49.962;7.718;2023-11-19T11:16:42;6.27;;;2.47;;
3781;SDS011;6881;49.962;7.718;2023-11-19T11:19:09;5.77;;;1.90;;
3781;SDS011;6881;49.962;7.718;2023-11-19T11:21:35;2.50;;;1.73;;
3781;SDS011;6881;49.962;7.718;2023-11-19T11:27:03;10.83;;;2.77;;
3781;SDS011;6881;49.962;7.718;2023-11-19T11:29:47;5.17;;;2.80;;
3781;SDS011;6881;49.962;7.718;2023-11-19T11:37:45;4.20;;;1.83;;
3781;SDS011;6881;49.962;7.718;2023-11-19T11:40:15;3.23;;;2.20;;
3781;SDS011;6881;49.962;7.718;2023-11-19T11:42:41;4.10;;;1.60;;
3781;SDS011;6881;49.962;7.718;2023-11-19T11:45:10;4.83;;;1.90;;
3781;SDS011;6881;49.962;7.718;2023-11-19T11:50:17;6.20;;;2.40;;
3781;SDS011;6881;49.962;7.718;2023-11-19T11:55:24;3.73;;;2.23;;
3781;SDS011;6881;49.962;7.718;2023-11-19T11:57:52;5.53;;;2.33;;
3781;SDS011;6881;49.962;7.718;2023-11-19T12:02:54;4.10;;;1.90;;
3781;SDS011;6881;49.962;7.718;2023-11-19T12:05:20;7.20;;;2.60;;
3781;SDS011;6881;49.962;7.718;2023-11-19T12:10:22;5.93;;;2.30;;
3781;SDS011;6881;49.962;7.718;2023-11-19T12:12:49;10.50;;;3.00;;
3781;SDS011;6881;49.962;7.718;2023-11-19T12:15:17;6.70;;;2.33;;
3781;SDS011;6881;49.962;7.718;2023-11-19T12:17:50;9.10;;;1.97;;
3781;SDS011;6881;49.962;7.718;2023-11-19T12:20:17;6.17;;;2.77;;
3781;SDS011;6881;49.962;7.718;2023-11-19T12:22:46;7.63;;;2.77;;
3781;SDS011;6881;49.962;7.718;2023-11-19T12:25:14;4.00;;;2.43;;
3781;SDS011;6881;49.962;7.718;2023-11-19T12:27:42;6.00;;;2.27;;
3781;SDS011;6881;49.962;7.718;2023-11-19T12:30:09;7.73;;;2.63;;
3781;SDS011;6881;49.962;7.718;2023-11-19T12:32:38;7.60;;;2.27;;
3781;SDS011;6881;49.962;7.718;2023-11-19T12:35:10;7.33;;;2.50;;
3781;SDS011;6881;49.962;7.718;2023-11-19T12:37:46;7.80;;;2.93;;
3781;SDS011;6881;49.962;7.718;2023-11-19T12:42:53;8.17;;;3.13;;
3781;SDS011;6881;49.962;7.718;2023-11-19T12:45:18;5.00;;;2.73;;
3781;SDS011;6881;49.962;7.718;2023-11-19T12:47:46;2.30;;;1.37;;
3781;SDS011;6881;49.962;7.718;2023-11-19T12:50:12;5.57;;;1.90;;
3781;SDS011;6881;49.962;7.718;2023-11-19T12:52:38;3.17;;;1.87;;
3781;SDS011;6881;49.962;7.718;2023-11-19T12:55:04;5.37;;;2.90;;
3781;SDS011;6881;49.962;7.718;2023-11-19T12:57:41;6.07;;;2.73;;
3781;SDS011;6881;49.962;7.718;2023-11-19T13:00:07;4.47;;;2.60;;
3781;SDS011;6881;49.962;7.718;2023-11-19T13:02:46;6.20;;;2.70;;
3781;SDS011;6881;49.962;7.718;2023-11-19T13:07:59;5.63;;;3.00;;
3781;SDS011;6881;49.962;7.718;2023-11-19T13:10:26;9.33;;;3.90;;
3781;SDS011;6881;49.962;7.718;2023-11-19T13:13:01;9.03;;;3.87;;
3781;SDS011;6881;49.962;7.718;2023-11-19T13:15:27;12.70;;;6.67;;
3781;SDS011;6881;49.962;7.718;2023-11-19T13:17:53;9.70;;;4.70;;
3781;SDS011;6881;49.962;7.718;2023-11-19T13:20:18;9.70;;;4.73;;
3781;SDS011;6881;49.962;7.718;2023-11-19T13:22:56;5.97;;;3.13;;
3781;SDS011;6881;49.962;7.718;2023-11-19T13:25:22;5.37;;;2.33;;
3781;SDS011;6881;49.962;7.718;2023-11-19T13:27:48;10.47;;;4.00;;
3781;SDS011;6881;49.962;7.718;2023-11-19T13:30:13;6.40;;;3.13;;
3781;SDS011;6881;49.962;7.718;2023-11-19T13:32:39;10.80;;;4.30;;
3781;SDS011;6881;49.962;7.718;2023-11-19T13:35:04;8.60;;;3.03;;
3781;SDS011;6881;49.962;7.718;2023-11-19T13:37:30;7.00;;;3.10;;
3781;SDS011;6881;49.962;7.718;2023-11-19T13:39:55;10.30;;;2.40;;
3781;SDS011;6881;49.962;7.718;2023-11-19T13:42:21;9.63;;;3.47;;
3781;SDS011;6881;49.962;7.718;2023-11-19T13:44:46;10.33;;;3.97;;
3781;SDS011;6881;49.962;7.718;2023-11-19T13:47:11;13.43;;;4.50;;
3781;SDS011;6881;49.962;7.718;2023-11-19T13:49:38;12.47;;;4.77;;
3781;SDS011;6881;49.962;7.718;2023-11-19T13:52:04;9.00;;;4.20;;
3781;SDS011;6881;49.962;7.718;2023-11-19T13:54:29;9.60;;;3.37;;
3781;SDS011;6881;49.962;7.718;2023-11-19T13:56:55;9.50;;;2.40;;
3781;SDS011;6881;49.962;7.718;2023-11-19T13:59:23;8.50;;;2.10;;
3781;SDS011;6881;49.962;7.718;2023-11-19T14:01:48;8.03;;;3.40;;
3781;SDS011;6881;49.962;7.718;2023-11-19T14:04:14;9.10;;;2.93;;
3781;SDS011;6881;49.962;7.718;2023-11-19T14:06:39;6.17;;;2.10;;
3781;SDS011;6881;49.962;7.718;2023-11-19T14:09:06;5.77;;;2.30;;
3781;SDS011;6881;49.962;7.718;2023-11-19T14:11:32;11.00;;;2.10;;
3781;SDS011;6881;49.962;7.718;2023-11-19T14:13:57;6.53;;;2.40;;
3781;SDS011;6881;49.962;7.718;2023-11-19T14:16:26;9.00;;;3.30;;
3781;SDS011;6881;49.962;7.718;2023-11-19T14:18:51;8.90;;;2.63;;
3781;SDS011;6881;49.962;7.718;2023-11-19T14:21:17;6.53;;;2.97;;
3781;SDS011;6881;49.962;7.718;2023-11-19T14:23:42;10.83;;;3.37;;
3781;SDS011;6881;49.962;7.718;2023-11-19T14:26:07;11.07;;;2.77;;
3781;SDS011;6881;49.962;7.718;2023-11-19T14:28:33;6.50;;;2.40;;
3781;SDS011;6881;49.962;7.718;2023-11-19T14:30:58;9.83;;;2.40;;
3781;SDS011;6881;49.962;7.718;2023-11-19T14:33:24;12.23;;;2.53;;
3781;SDS011;6881;49.962;7.718;2023-11-19T14:35:49;13.30;;;3.40;;
3781;SDS011;6881;49.962;7.718;2023-11-19T14:38:15;6.17;;;3.00;;
3781;SDS011;6881;49.962;7.718;2023-11-19T14:40:40;7.43;;;2.10;;
3781;SDS011;6881;49.962;7.718;2023-11-19T14:43:07;8.80;;;2.37;;
3781;SDS011;6881;49.962;7.718;2023-11-19T14:45:35;7.10;;;2.70;;
3781;SDS011;6881;49.962;7.718;2023-11-19T14:48:00;4.20;;;1.43;;
3781;SDS011;6881;49.962;7.718;2023-11-19T14:50:26;6.90;;;2.30;;
3781;SDS011;6881;49.962;7.718;2023-11-19T14:52:51;8.57;;;2.30;;
3781;SDS011;6881;49.962;7.718;2023-11-19T14:55:16;9.00;;;2.20;;
3781;SDS011;6881;49.962;7.718;2023-11-19T14:57:42;6.33;;;2.50;;
3781;SDS011;6881;49.962;7.718;2023-11-19T15:00:09;9.83;;;3.70;;
3781;SDS011;6881;49.962;7.718;2023-11-19T15:02:38;5.47;;;1.80;;
3781;SDS011;6881;49.962;7.718;2023-11-19T15:05:05;3.80;;;1.77;;
3781;SDS011;6881;49.962;7.718;2023-11-19T15:07:32;6.00;;;2.47;;
3781;SDS011;6881;49.962;7.718;2023-11-19T15:09:57;5.97;;;3.00;;
3781;SDS011;6881;49.962;7.718;2023-11-19T15:12:22;9.77;;;3.10;;
3781;SDS011;6881;49.962;7.718;2023-11-19T15:14:48;6.90;;;3.30;;
3781;SDS011;6881;49.962;7.718;2023-11-19T15:17:13;5.77;;;2.70;;
3781;SDS011;6881;49.962;7.718;2023-11-19T15:19:39;10.67;;;2.97;;
3781;SDS011;6881;49.962;7.718;2023-11-19T15:22:04;7.37;;;2.50;;
3781;SDS011;6881;49.962;7.718;2023-11-19T15:24:30;5.50;;;1.80;;
3781;SDS011;6881;49.962;7.718;2023-11-19T15:26:55;8.87;;;2.10;;
3781;SDS011;6881;49.962;7.718;2023-11-19T15:29:21;4.30;;;1.87;;
3781;SDS011;6881;49.962;7.718;2023-11-19T15:31:48;5.23;;;2.03;;
3781;SDS011;6881;49.962;7.718;2023-11-19T15:34:13;5.57;;;2.23;;